sensor_id;sensor_type;location;lat;lon;timestamp;temperature;humidity
74520;DHT22;63002;48.134;-1.948;2024-01-27T06:00:32;18.20;58.60
74520;DHT22;63002;48.134;-1.948;2024-01-27T06:02:57;18.20;58.50
74520;DHT22;63002;48.134;-1.948;2024-01-27T06:05:23;18.20;58.50
74520;DHT22;63002;48.134;-1.948;2024-01-27T06:07:49;18.20;58.50
74520;DHT22;63002;48.134;-1.948;2024-01-27T06:10:14;18.20;58.50
74520;DHT22;63002;48.134;-1.948;2024-01-27T06:12:40;18.10;58.60
74520;DHT22;63002;48.134;-1.948;2024-01-27T06:15:06;18.20;58.60
74520;DHT22;63002;48.134;-1.948;2024-01-27T06:17:34;18.10;58.60
74520;DHT22;63002;48.134;-1.948;2024-01-27T06:20:00;18.10;58.50
74520;DHT22;63002;48.134;-1.948;2024-01-27T06:22:25;18.10;58.50
74520;DHT22;63002;48.134;-1.948;2024-01-27T06:24:51;18.10;58.50
74520;DHT22;63002;48.134;-1.948;2024-01-27T06:27:16;18.10;58.60
74520;DHT22;63002;48.134;-1.948;2024-01-27T06:29:42;18.10;58.50
74520;DHT22;63002;48.134;-1.948;2024-01-27T06:32:09;18.10;58.50
74520;DHT22;63002;48.134;-1.948;2024-01-27T06:34:35;18.10;58.50
74520;DHT22;63002;48.134;-1.948;2024-01-27T06:37:01;18.10;58.60
74520;DHT22;63002;48.134;-1.948;2024-01-27T06:39:26;18.10;58.50
74520;DHT22;63002;48.134;-1.948;2024-01-27T06:41:52;18.10;58.50
74520;DHT22;63002;48.134;-1.948;2024-01-27T06:44:18;18.10;58.50
74520;DHT22;63002;48.134;-1.948;2024-01-27T06:46:44;18.10;58.50
74520;DHT22;63002;48.134;-1.948;2024-01-27T06:49:11;18.10;58.60
74520;DHT22;63002;48.134;-1.948;2024-01-27T06:51:38;18.10;58.50
74520;DHT22;63002;48.134;-1.948;2024-01-27T06:54:04;18.10;58.50
74520;DHT22;63002;48.134;-1.948;2024-01-27T06:56:29;18.10;58.50
74520;DHT22;63002;48.134;-1.948;2024-01-27T06:58:55;18.10;58.50
74520;DHT22;63002;48.134;-1.948;2024-01-27T07:01:21;18.10;58.60
74520;DHT22;63002;48.134;-1.948;2024-01-27T07:03:46;18.10;58.50
74520;DHT22;63002;48.134;-1.948;2024-01-27T07:06:12;18.10;58.50
74520;DHT22;63002;48.134;-1.948;2024-01-27T07:08:38;18.10;58.50
74520;DHT22;63002;48.134;-1.948;2024-01-27T07:11:03;18.10;58.50
74520;DHT22;63002;48.134;-1.948;2024-01-27T07:13:29;18.10;58.50
74520;DHT22;63002;48.134;-1.948;2024-01-27T07:15:56;18.10;58.50
74520;DHT22;63002;48.134;-1.948;2024-01-27T07:18:23;18.10;58.50
74520;DHT22;63002;48.134;-1.948;2024-01-27T07:20:50;18.10;58.50
74520;DHT22;63002;48.134;-1.948;2024-01-27T07:23:16;18.10;58.50
74520;DHT22;63002;48.134;-1.948;2024-01-27T07:25:43;18.10;58.40
74520;DHT22;63002;48.134;-1.948;2024-01-27T07:28:09;18.10;58.50
74520;DHT22;63002;48.134;-1.948;2024-01-27T07:30:36;18.10;58.40
74520;DHT22;63002;48.134;-1.948;2024-01-27T07:33:02;18.10;58.40
74520;DHT22;63002;48.134;-1.948;2024-01-27T07:35:29;18.10;58.40
74520;DHT22;63002;48.134;-1.948;2024-01-27T07:37:54;18.10;58.40
74520;DHT22;63002;48.134;-1.948;2024-01-27T07:40:20;18.10;58.40
74520;DHT22;63002;48.134;-1.948;2024-01-27T07:42:46;18.10;58.40
74520;DHT22;63002;48.134;-1.948;2024-01-27T07:45:12;18.10;58.40
74520;DHT22;63002;48.134;-1.948;2024-01-27T07:47:38;18.10;58.40
74520;DHT22;63002;48.134;-1.948;2024-01-27T07:50:04;18.10;58.40
74520;DHT22;63002;48.134;-1.948;2024-01-27T07:52:30;18.10;58.40
74520;DHT22;63002;48.134;-1.948;2024-01-27T07:54:56;18.10;58.40
74520;DHT22;63002;48.134;-1.948;2024-01-27T07:57:21;18.10;58.40
74520;DHT22;63002;48.134;-1.948;2024-01-27T07:59:47;18.10;58.30
74520;DHT22;63002;48.134;-1.948;2024-01-27T08:02:13;18.10;58.40
74520;DHT22;63002;48.134;-1.948;2024-01-27T08:04:39;18.10;58.40
74520;DHT22;63002;48.134;-1.948;2024-01-27T08:07:04;18.10;58.40
74520;DHT22;63002;48.134;-1.948;2024-01-27T08:09:35;18.00;56.60
74520;DHT22;63002;48.134;-1.948;2024-01-27T08:12:01;18.10;57.80
74520;DHT22;63002;48.134;-1.948;2024-01-27T08:14:30;18.30;57.50
74520;DHT22;63002;48.134;-1.948;2024-01-27T08:16:56;18.40;57.30
74520;DHT22;63002;48.134;-1.948;2024-01-27T08:19:23;18.50;57.10
74520;DHT22;63002;48.134;-1.948;2024-01-27T08:21:49;18.50;57.00
74520;DHT22;63002;48.134;-1.948;2024-01-27T08:24:15;18.50;56.90
74520;DHT22;63002;48.134;-1.948;2024-01-27T08:26:41;18.60;56.80
74520;DHT22;63002;48.134;-1.948;2024-01-27T08:29:11;18.60;56.60
74520;DHT22;63002;48.134;-1.948;2024-01-27T08:31:37;18.60;56.50
74520;DHT22;63002;48.134;-1.948;2024-01-27T08:34:04;18.60;56.50
74520;DHT22;63002;48.134;-1.948;2024-01-27T08:36:29;18.60;56.40
74520;DHT22;63002;48.134;-1.948;2024-01-27T08:38:55;18.70;56.40
74520;DHT22;63002;48.134;-1.948;2024-01-27T08:41:22;18.70;56.30
74520;DHT22;63002;48.134;-1.948;2024-01-27T08:43:47;18.70;56.20
74520;DHT22;63002;48.134;-1.948;2024-01-27T08:46:13;18.70;56.10
74520;DHT22;63002;48.134;-1.948;2024-01-27T08:48:41;18.60;54.30
74520;DHT22;63002;48.134;-1.948;2024-01-27T08:51:09;18.60;55.90
74520;DHT22;63002;48.134;-1.948;2024-01-27T08:53:35;18.70;56.10
74520;DHT22;63002;48.134;-1.948;2024-01-27T08:56:01;18.80;56.30
74520;DHT22;63002;48.134;-1.948;2024-01-27T08:58:27;18.80;56.40
74520;DHT22;63002;48.134;-1.948;2024-01-27T09:00:53;18.90;56.40
74520;DHT22;63002;48.134;-1.948;2024-01-27T09:03:19;18.80;47.70
74520;DHT22;63002;48.134;-1.948;2024-01-27T09:05:46;17.00;49.60
74520;DHT22;63002;48.134;-1.948;2024-01-27T09:08:12;17.00;52.40
74520;DHT22;63002;48.134;-1.948;2024-01-27T09:10:38;17.70;52.40
74520;DHT22;63002;48.134;-1.948;2024-01-27T09:13:04;16.40;46.50
74520;DHT22;63002;48.134;-1.948;2024-01-27T09:15:33;16.80;55.50
74520;DHT22;63002;48.134;-1.948;2024-01-27T09:17:59;17.40;55.50
74520;DHT22;63002;48.134;-1.948;2024-01-27T09:20:24;17.80;55.40
74520;DHT22;63002;48.134;-1.948;2024-01-27T09:22:50;18.00;55.20
74520;DHT22;63002;48.134;-1.948;2024-01-27T09:25:16;18.10;54.90
74520;DHT22;63002;48.134;-1.948;2024-01-27T09:27:42;18.30;54.70
74520;DHT22;63002;48.134;-1.948;2024-01-27T09:30:08;18.40;54.50
74520;DHT22;63002;48.134;-1.948;2024-01-27T09:32:34;18.50;54.40
74520;DHT22;63002;48.134;-1.948;2024-01-27T09:35:00;18.50;54.30
74520;DHT22;63002;48.134;-1.948;2024-01-27T09:37:25;18.60;54.00
74520;DHT22;63002;48.134;-1.948;2024-01-27T09:39:51;18.60;54.10
74520;DHT22;63002;48.134;-1.948;2024-01-27T09:42:20;18.70;53.90
74520;DHT22;63002;48.134;-1.948;2024-01-27T09:44:48;18.80;53.80
74520;DHT22;63002;48.134;-1.948;2024-01-27T09:47:15;18.80;53.70
74520;DHT22;63002;48.134;-1.948;2024-01-27T09:49:41;18.80;53.70
74520;DHT22;63002;48.134;-1.948;2024-01-27T09:52:09;18.90;53.50
74520;DHT22;63002;48.134;-1.948;2024-01-27T09:54:36;18.90;53.50
74520;DHT22;63002;48.134;-1.948;2024-01-27T09:57:02;19.00;53.40
74520;DHT22;63002;48.134;-1.948;2024-01-27T09:59:29;19.00;53.30
74520;DHT22;63002;48.134;-1.948;2024-01-27T10:01:56;19.10;53.20
74520;DHT22;63002;48.134;-1.948;2024-01-27T10:04:23;19.10;53.30
74520;DHT22;63002;48.134;-1.948;2024-01-27T10:06:50;19.10;53.10
74520;DHT22;63002;48.134;-1.948;2024-01-27T10:09:17;19.10;53.10
74520;DHT22;63002;48.134;-1.948;2024-01-27T10:11:46;19.20;53.00
74520;DHT22;63002;48.134;-1.948;2024-01-27T10:14:18;19.10;53.10
74520;DHT22;63002;48.134;-1.948;2024-01-27T10:16:45;19.10;53.30
74520;DHT22;63002;48.134;-1.948;2024-01-27T10:19:19;19.00;53.70
74520;DHT22;63002;48.134;-1.948;2024-01-27T10:21:46;18.90;54.00
74520;DHT22;63002;48.134;-1.948;2024-01-27T10:24:12;18.80;54.20
74520;DHT22;63002;48.134;-1.948;2024-01-27T10:26:38;18.00;49.70
74520;DHT22;63002;48.134;-1.948;2024-01-27T10:29:03;18.30;53.70
74520;DHT22;63002;48.134;-1.948;2024-01-27T10:31:30;18.70;53.20
74520;DHT22;63002;48.134;-1.948;2024-01-27T10:33:57;18.90;53.00
74520;DHT22;63002;48.134;-1.948;2024-01-27T10:36:23;18.90;51.10
74520;DHT22;63002;48.134;-1.948;2024-01-27T10:38:49;19.10;53.90
74520;DHT22;63002;48.134;-1.948;2024-01-27T10:41:22;19.00;54.20
74520;DHT22;63002;48.134;-1.948;2024-01-27T10:43:50;18.90;54.70
74520;DHT22;63002;48.134;-1.948;2024-01-27T10:46:19;18.80;54.90
74520;DHT22;63002;48.134;-1.948;2024-01-27T10:48:50;18.80;55.20
74520;DHT22;63002;48.134;-1.948;2024-01-27T10:51:22;18.60;54.30
74520;DHT22;63002;48.134;-1.948;2024-01-27T10:53:49;18.60;55.00
74520;DHT22;63002;48.134;-1.948;2024-01-27T10:56:18;18.60;54.90
74520;DHT22;63002;48.134;-1.948;2024-01-27T10:58:45;18.60;55.00
74520;DHT22;63002;48.134;-1.948;2024-01-27T11:01:13;18.70;55.20
74520;DHT22;63002;48.134;-1.948;2024-01-27T11:03:40;18.60;55.40
74520;DHT22;63002;48.134;-1.948;2024-01-27T11:06:07;18.70;55.50
74520;DHT22;63002;48.134;-1.948;2024-01-27T11:08:37;18.70;55.50
74520;DHT22;63002;48.134;-1.948;2024-01-27T11:11:03;18.70;55.50
74520;DHT22;63002;48.134;-1.948;2024-01-27T11:13:30;18.70;55.60
74520;DHT22;63002;48.134;-1.948;2024-01-27T11:15:57;18.70;55.70
74520;DHT22;63002;48.134;-1.948;2024-01-27T11:18:26;18.70;55.80
74520;DHT22;63002;48.134;-1.948;2024-01-27T11:20:55;18.70;55.80
74520;DHT22;63002;48.134;-1.948;2024-01-27T11:23:34;18.70;55.90
74520;DHT22;63002;48.134;-1.948;2024-01-27T11:26:05;18.70;55.90
74520;DHT22;63002;48.134;-1.948;2024-01-27T11:28:31;18.70;56.00
74520;DHT22;63002;48.134;-1.948;2024-01-27T11:30:56;18.70;56.00
74520;DHT22;63002;48.134;-1.948;2024-01-27T11:33:25;18.70;56.00
74520;DHT22;63002;48.134;-1.948;2024-01-27T11:36:03;18.70;56.10
74520;DHT22;63002;48.134;-1.948;2024-01-27T11:38:33;18.70;56.10
74520;DHT22;63002;48.134;-1.948;2024-01-27T11:41:01;18.70;56.10
74520;DHT22;63002;48.134;-1.948;2024-01-27T11:43:27;18.70;56.10
74520;DHT22;63002;48.134;-1.948;2024-01-27T11:46:00;18.70;56.20
74520;DHT22;63002;48.134;-1.948;2024-01-27T11:48:26;18.70;56.20
74520;DHT22;63002;48.134;-1.948;2024-01-27T11:51:06;18.70;56.30
74520;DHT22;63002;48.134;-1.948;2024-01-27T11:53:34;18.70;56.30
74520;DHT22;63002;48.134;-1.948;2024-01-27T11:55:59;18.70;55.80
74520;DHT22;63002;48.134;-1.948;2024-01-27T11:58:27;18.50;54.90
74520;DHT22;63002;48.134;-1.948;2024-01-27T12:00:53;18.50;54.90
74520;DHT22;63002;48.134;-1.948;2024-01-27T12:03:19;18.50;54.40
74520;DHT22;63002;48.134;-1.948;2024-01-27T12:05:45;18.50;55.50
74520;DHT22;63002;48.134;-1.948;2024-01-27T12:08:11;18.50;55.10
74520;DHT22;63002;48.134;-1.948;2024-01-27T12:10:37;18.60;55.30
74520;DHT22;63002;48.134;-1.948;2024-01-27T12:13:03;18.60;55.50
74520;DHT22;63002;48.134;-1.948;2024-01-27T12:15:28;18.60;55.60
74520;DHT22;63002;48.134;-1.948;2024-01-27T12:17:54;18.60;55.70
74520;DHT22;63002;48.134;-1.948;2024-01-27T12:20:22;18.60;55.80
74520;DHT22;63002;48.134;-1.948;2024-01-27T12:22:48;17.70;50.10
74520;DHT22;63002;48.134;-1.948;2024-01-27T12:25:16;17.50;55.00
74520;DHT22;63002;48.134;-1.948;2024-01-27T12:27:43;17.80;55.10
74520;DHT22;63002;48.134;-1.948;2024-01-27T12:30:10;18.00;55.60
74520;DHT22;63002;48.134;-1.948;2024-01-27T12:32:36;18.10;54.90
74520;DHT22;63002;48.134;-1.948;2024-01-27T12:35:05;18.20;55.40
74520;DHT22;63002;48.134;-1.948;2024-01-27T12:37:31;18.30;55.90
74520;DHT22;63002;48.134;-1.948;2024-01-27T12:39:57;18.30;56.10
74520;DHT22;63002;48.134;-1.948;2024-01-27T12:42:22;18.40;56.40
74520;DHT22;63002;48.134;-1.948;2024-01-27T12:44:48;18.40;56.40
74520;DHT22;63002;48.134;-1.948;2024-01-27T12:47:14;18.40;56.60
74520;DHT22;63002;48.134;-1.948;2024-01-27T12:49:40;18.40;56.70
74520;DHT22;63002;48.134;-1.948;2024-01-27T12:52:06;18.50;56.60
74520;DHT22;63002;48.134;-1.948;2024-01-27T12:54:32;18.50;56.70
74520;DHT22;63002;48.134;-1.948;2024-01-27T12:56:58;18.50;56.70
74520;DHT22;63002;48.134;-1.948;2024-01-27T12:59:26;18.50;56.70
74520;DHT22;63002;48.134;-1.948;2024-01-27T13:01:52;18.60;56.70
74520;DHT22;63002;48.134;-1.948;2024-01-27T13:04:18;18.90;57.20
74520;DHT22;63002;48.134;-1.948;2024-01-27T13:06:44;19.10;57.30
74520;DHT22;63002;48.134;-1.948;2024-01-27T13:09:10;19.10;57.20
74520;DHT22;63002;48.134;-1.948;2024-01-27T13:11:39;19.00;57.30
74520;DHT22;63002;48.134;-1.948;2024-01-27T13:14:05;19.00;57.40
74520;DHT22;63002;48.134;-1.948;2024-01-27T13:16:32;19.00;57.50
74520;DHT22;63002;48.134;-1.948;2024-01-27T13:18:57;19.00;57.50
74520;DHT22;63002;48.134;-1.948;2024-01-27T13:21:23;19.00;57.60
74520;DHT22;63002;48.134;-1.948;2024-01-27T13:23:49;19.00;57.60
74520;DHT22;63002;48.134;-1.948;2024-01-27T13:26:17;19.00;57.60
74520;DHT22;63002;48.134;-1.948;2024-01-27T13:28:43;19.00;57.50
74520;DHT22;63002;48.134;-1.948;2024-01-27T13:31:09;19.00;57.60
74520;DHT22;63002;48.134;-1.948;2024-01-27T13:33:34;19.00;57.60
74520;DHT22;63002;48.134;-1.948;2024-01-27T13:36:01;19.00;57.60
74520;DHT22;63002;48.134;-1.948;2024-01-27T13:38:27;19.10;57.40
74520;DHT22;63002;48.134;-1.948;2024-01-27T13:40:53;18.80;56.60
74520;DHT22;63002;48.134;-1.948;2024-01-27T13:43:18;18.70;53.00
74520;DHT22;63002;48.134;-1.948;2024-01-27T13:45:45;18.00;56.10
74520;DHT22;63002;48.134;-1.948;2024-01-27T13:48:12;18.30;56.60
74520;DHT22;63002;48.134;-1.948;2024-01-27T13:50:38;18.40;56.60
74520;DHT22;63002;48.134;-1.948;2024-01-27T13:53:04;18.40;55.50
74520;DHT22;63002;48.134;-1.948;2024-01-27T13:55:31;18.50;56.00
74520;DHT22;63002;48.134;-1.948;2024-01-27T13:57:57;18.50;56.30
74520;DHT22;63002;48.134;-1.948;2024-01-27T14:00:23;18.50;55.70
74520;DHT22;63002;48.134;-1.948;2024-01-27T14:02:48;18.50;55.60
74520;DHT22;63002;48.134;-1.948;2024-01-27T14:05:14;18.60;55.10
74520;DHT22;63002;48.134;-1.948;2024-01-27T14:07:40;18.20;55.50
74520;DHT22;63002;48.134;-1.948;2024-01-27T14:10:06;18.30;56.10
74520;DHT22;63002;48.134;-1.948;2024-01-27T14:12:32;18.40;56.20
74520;DHT22;63002;48.134;-1.948;2024-01-27T14:15:04;18.50;56.30
74520;DHT22;63002;48.134;-1.948;2024-01-27T14:17:34;18.70;56.10
74520;DHT22;63002;48.134;-1.948;2024-01-27T14:20:02;18.90;55.50
74520;DHT22;63002;48.134;-1.948;2024-01-27T14:22:29;18.90;55.50
74520;DHT22;63002;48.134;-1.948;2024-01-27T14:24:55;19.00;55.30
74520;DHT22;63002;48.134;-1.948;2024-01-27T14:27:21;19.10;55.20
74520;DHT22;63002;48.134;-1.948;2024-01-27T14:29:54;18.70;52.80
74520;DHT22;63002;48.134;-1.948;2024-01-27T14:32:20;18.00;55.70
74520;DHT22;63002;48.134;-1.948;2024-01-27T14:34:47;18.40;55.80
74520;DHT22;63002;48.134;-1.948;2024-01-27T14:37:13;18.70;55.50
74520;DHT22;63002;48.134;-1.948;2024-01-27T14:39:39;18.80;55.10
74520;DHT22;63002;48.134;-1.948;2024-01-27T14:42:10;19.00;54.80
74520;DHT22;63002;48.134;-1.948;2024-01-27T14:44:36;19.00;54.50
74520;DHT22;63002;48.134;-1.948;2024-01-27T14:47:02;19.00;54.50
74520;DHT22;63002;48.134;-1.948;2024-01-27T14:49:28;19.10;54.30
74520;DHT22;63002;48.134;-1.948;2024-01-27T14:51:54;19.10;54.40
74520;DHT22;63002;48.134;-1.948;2024-01-27T14:54:20;19.10;54.30
74520;DHT22;63002;48.134;-1.948;2024-01-27T14:56:45;19.20;54.20
74520;DHT22;63002;48.134;-1.948;2024-01-27T14:59:12;19.20;54.10
74520;DHT22;63002;48.134;-1.948;2024-01-27T15:01:38;19.20;54.00
74520;DHT22;63002;48.134;-1.948;2024-01-27T15:04:04;19.20;54.10
74520;DHT22;63002;48.134;-1.948;2024-01-27T15:06:29;19.20;54.10
74520;DHT22;63002;48.134;-1.948;2024-01-27T15:08:55;19.20;54.10
74520;DHT22;63002;48.134;-1.948;2024-01-27T15:11:21;19.20;54.00
74520;DHT22;63002;48.134;-1.948;2024-01-27T15:13:47;19.20;54.20
74520;DHT22;63002;48.134;-1.948;2024-01-27T15:16:13;19.20;54.20
74520;DHT22;63002;48.134;-1.948;2024-01-27T15:18:39;19.10;54.20
74520;DHT22;63002;48.134;-1.948;2024-01-27T15:21:09;19.20;54.20
74520;DHT22;63002;48.134;-1.948;2024-01-27T15:23:35;19.20;53.90
74520;DHT22;63002;48.134;-1.948;2024-01-27T15:26:02;19.30;54.00
74520;DHT22;63002;48.134;-1.948;2024-01-27T15:28:30;19.30;53.80
74520;DHT22;63002;48.134;-1.948;2024-01-27T15:30:55;19.30;54.00
74520;DHT22;63002;48.134;-1.948;2024-01-27T15:33:21;19.30;53.90
74520;DHT22;63002;48.134;-1.948;2024-01-27T15:35:47;19.30;54.00
74520;DHT22;63002;48.134;-1.948;2024-01-27T15:38:12;18.90;52.00
74520;DHT22;63002;48.134;-1.948;2024-01-27T15:40:38;18.90;54.00
74520;DHT22;63002;48.134;-1.948;2024-01-27T15:43:04;19.00;53.80
74520;DHT22;63002;48.134;-1.948;2024-01-27T15:45:31;19.10;53.80
74520;DHT22;63002;48.134;-1.948;2024-01-27T15:47:57;19.20;53.70
74520;DHT22;63002;48.134;-1.948;2024-01-27T15:50:25;19.20;53.70
74520;DHT22;63002;48.134;-1.948;2024-01-27T15:52:56;19.30;53.50
74520;DHT22;63002;48.134;-1.948;2024-01-27T15:55:23;19.30;53.70
74520;DHT22;63002;48.134;-1.948;2024-01-27T15:57:48;19.30;53.60
74520;DHT22;63002;48.134;-1.948;2024-01-27T16:00:16;19.40;53.60
74520;DHT22;63002;48.134;-1.948;2024-01-27T16:02:42;19.40;53.60
74520;DHT22;63002;48.134;-1.948;2024-01-27T16:05:08;19.40;53.70
74520;DHT22;63002;48.134;-1.948;2024-01-27T16:07:33;19.30;52.70
74520;DHT22;63002;48.134;-1.948;2024-01-27T16:09:59;18.90;50.90
74520;DHT22;63002;48.134;-1.948;2024-01-27T16:12:30;18.80;52.50
74520;DHT22;63002;48.134;-1.948;2024-01-27T16:14:56;19.00;53.30
74520;DHT22;63002;48.134;-1.948;2024-01-27T16:17:22;18.40;52.30
74520;DHT22;63002;48.134;-1.948;2024-01-27T16:19:48;18.60;53.40
74520;DHT22;63002;48.134;-1.948;2024-01-27T16:22:14;18.70;53.80
74520;DHT22;63002;48.134;-1.948;2024-01-27T16:24:42;18.70;53.90
74520;DHT22;63002;48.134;-1.948;2024-01-27T16:27:08;18.80;54.10
74520;DHT22;63002;48.134;-1.948;2024-01-27T16:29:34;18.90;54.20
74520;DHT22;63002;48.134;-1.948;2024-01-27T16:32:00;19.10;53.80
74520;DHT22;63002;48.134;-1.948;2024-01-27T16:34:25;19.00;53.80
74520;DHT22;63002;48.134;-1.948;2024-01-27T16:36:51;19.00;54.10
74520;DHT22;63002;48.134;-1.948;2024-01-27T16:39:17;19.00;54.30
74520;DHT22;63002;48.134;-1.948;2024-01-27T16:41:43;19.00;54.40
74520;DHT22;63002;48.134;-1.948;2024-01-27T16:44:11;19.00;54.50
74520;DHT22;63002;48.134;-1.948;2024-01-27T16:46:37;19.00;54.60
74520;DHT22;63002;48.134;-1.948;2024-01-27T16:49:03;19.00;54.50
74520;DHT22;63002;48.134;-1.948;2024-01-27T16:51:29;19.00;54.40
74520;DHT22;63002;48.134;-1.948;2024-01-27T16:53:54;19.00;54.60
74520;DHT22;63002;48.134;-1.948;2024-01-27T16:56:20;19.00;54.60
74520;DHT22;63002;48.134;-1.948;2024-01-27T16:58:46;19.00;54.60
74520;DHT22;63002;48.134;-1.948;2024-01-27T17:01:15;19.00;54.70
74520;DHT22;63002;48.134;-1.948;2024-01-27T17:03:41;19.00;54.80
74520;DHT22;63002;48.134;-1.948;2024-01-27T17:06:07;19.00;54.80
74520;DHT22;63002;48.134;-1.948;2024-01-27T17:08:33;19.00;54.80
74520;DHT22;63002;48.134;-1.948;2024-01-27T17:10:59;19.00;54.80
74520;DHT22;63002;48.134;-1.948;2024-01-27T17:13:25;19.00;54.90
74520;DHT22;63002;48.134;-1.948;2024-01-27T17:15:51;19.00;55.00
74520;DHT22;63002;48.134;-1.948;2024-01-27T17:18:18;19.00;54.90
74520;DHT22;63002;48.134;-1.948;2024-01-27T17:20:44;19.00;55.00
74520;DHT22;63002;48.134;-1.948;2024-01-27T17:23:10;18.90;55.00
74520;DHT22;63002;48.134;-1.948;2024-01-27T17:25:36;19.00;55.00
74520;DHT22;63002;48.134;-1.948;2024-01-27T17:28:01;18.90;55.00
74520;DHT22;63002;48.134;-1.948;2024-01-27T17:30:27;18.90;55.10
74520;DHT22;63002;48.134;-1.948;2024-01-27T17:32:53;18.90;55.10
74520;DHT22;63002;48.134;-1.948;2024-01-27T17:35:19;18.90;55.20
74520;DHT22;63002;48.134;-1.948;2024-01-27T17:37:45;18.90;55.10
74520;DHT22;63002;48.134;-1.948;2024-01-27T17:40:11;18.90;55.10
74520;DHT22;63002;48.134;-1.948;2024-01-27T17:42:37;18.90;55.20
74520;DHT22;63002;48.134;-1.948;2024-01-27T17:45:03;18.90;55.20
74520;DHT22;63002;48.134;-1.948;2024-01-27T17:47:31;18.90;55.20
74520;DHT22;63002;48.134;-1.948;2024-01-27T17:49:57;18.90;55.20
74520;DHT22;63002;48.134;-1.948;2024-01-27T17:52:23;18.90;55.20
74520;DHT22;63002;48.134;-1.948;2024-01-27T17:54:49;18.90;55.20
74520;DHT22;63002;48.134;-1.948;2024-01-27T17:57:15;18.90;55.20
74520;DHT22;63002;48.134;-1.948;2024-01-27T17:59:41;18.90;55.20
74520;DHT22;63002;48.134;-1.948;2024-01-27T18:02:07;18.80;55.30
74520;DHT22;63002;48.134;-1.948;2024-01-27T18:04:33;18.80;55.30
74520;DHT22;63002;48.134;-1.948;2024-01-27T18:06:59;18.80;55.30
74520;DHT22;63002;48.134;-1.948;2024-01-27T18:09:25;18.80;55.30
74520;DHT22;63002;48.134;-1.948;2024-01-27T18:11:51;18.80;55.40
74520;DHT22;63002;48.134;-1.948;2024-01-27T18:14:17;18.80;55.30
74520;DHT22;63002;48.134;-1.948;2024-01-27T18:16:42;18.80;55.30
74520;DHT22;63002;48.134;-1.948;2024-01-27T18:19:09;18.80;55.30
74520;DHT22;63002;48.134;-1.948;2024-01-27T18:21:37;18.80;55.40
74520;DHT22;63002;48.134;-1.948;2024-01-27T18:24:03;18.80;55.40
74520;DHT22;63002;48.134;-1.948;2024-01-27T18:26:29;18.80;55.40
74520;DHT22;63002;48.134;-1.948;2024-01-27T18:28:55;18.80;55.40
74520;DHT22;63002;48.134;-1.948;2024-01-27T18:31:20;18.80;55.40
74520;DHT22;63002;48.134;-1.948;2024-01-27T18:33:46;18.80;55.40
74520;DHT22;63002;48.134;-1.948;2024-01-27T18:36:17;18.80;55.40
74520;DHT22;63002;48.134;-1.948;2024-01-27T18:38:43;18.70;55.40
74520;DHT22;63002;48.134;-1.948;2024-01-27T18:41:10;18.80;55.40
74520;DHT22;63002;48.134;-1.948;2024-01-27T18:43:36;18.70;55.40
74520;DHT22;63002;48.134;-1.948;2024-01-27T18:46:02;18.80;55.40
74520;DHT22;63002;48.134;-1.948;2024-01-27T18:48:29;18.70;55.40
74520;DHT22;63002;48.134;-1.948;2024-01-27T18:50:55;18.70;55.50
74520;DHT22;63002;48.134;-1.948;2024-01-27T18:53:20;18.70;55.50
74520;DHT22;63002;48.134;-1.948;2024-01-27T18:55:46;18.70;55.50
74520;DHT22;63002;48.134;-1.948;2024-01-27T18:58:12;18.70;55.50
74520;DHT22;63002;48.134;-1.948;2024-01-27T19:00:37;18.70;55.50
74520;DHT22;63002;48.134;-1.948;2024-01-27T19:03:04;18.70;55.50
74520;DHT22;63002;48.134;-1.948;2024-01-27T19:05:34;18.70;55.50
74520;DHT22;63002;48.134;-1.948;2024-01-27T19:08:00;18.70;55.50
74520;DHT22;63002;48.134;-1.948;2024-01-27T19:10:26;18.70;55.50
74520;DHT22;63002;48.134;-1.948;2024-01-27T19:12:52;18.70;55.50
74520;DHT22;63002;48.134;-1.948;2024-01-27T19:15:17;18.70;55.50
74520;DHT22;63002;48.134;-1.948;2024-01-27T19:17:43;18.70;55.50
74520;DHT22;63002;48.134;-1.948;2024-01-27T19:20:09;18.70;55.50
74520;DHT22;63002;48.134;-1.948;2024-01-27T19:22:38;18.70;55.50
74520;DHT22;63002;48.134;-1.948;2024-01-27T19:25:04;18.70;55.50
74520;DHT22;63002;48.134;-1.948;2024-01-27T19:27:30;18.60;55.50
74520;DHT22;63002;48.134;-1.948;2024-01-27T19:29:56;18.60;55.50
74520;DHT22;63002;48.134;-1.948;2024-01-27T19:32:22;18.60;55.50
74520;DHT22;63002;48.134;-1.948;2024-01-27T19:34:48;18.60;55.50
74520;DHT22;63002;48.134;-1.948;2024-01-27T19:37:14;18.60;55.50
74520;DHT22;63002;48.134;-1.948;2024-01-27T19:39:40;18.60;55.50
74520;DHT22;63002;48.134;-1.948;2024-01-27T19:42:06;18.60;55.50
74520;DHT22;63002;48.134;-1.948;2024-01-27T19:44:32;18.60;55.50
74520;DHT22;63002;48.134;-1.948;2024-01-27T19:46:57;18.60;55.50
74520;DHT22;63002;48.134;-1.948;2024-01-27T19:49:23;18.60;55.60
74520;DHT22;63002;48.134;-1.948;2024-01-27T19:51:49;18.60;55.50
74520;DHT22;63002;48.134;-1.948;2024-01-27T19:54:15;18.60;55.50
74520;DHT22;63002;48.134;-1.948;2024-01-27T19:56:40;18.60;55.60
74520;DHT22;63002;48.134;-1.948;2024-01-27T19:59:06;18.50;55.50
74520;DHT22;63002;48.134;-1.948;2024-01-27T20:01:32;18.60;55.50
74520;DHT22;63002;48.134;-1.948;2024-01-27T20:03:58;18.60;55.50
74520;DHT22;63002;48.134;-1.948;2024-01-27T20:06:23;18.60;55.50
74520;DHT22;63002;48.134;-1.948;2024-01-27T20:08:49;18.60;55.50
74520;DHT22;63002;48.134;-1.948;2024-01-27T20:11:15;18.60;55.50
74520;DHT22;63002;48.134;-1.948;2024-01-27T20:13:41;18.60;55.60
74520;DHT22;63002;48.134;-1.948;2024-01-27T20:16:06;18.60;55.50
74520;DHT22;63002;48.134;-1.948;2024-01-27T20:18:33;18.50;55.50
74520;DHT22;63002;48.134;-1.948;2024-01-27T20:20:59;18.60;55.30
74520;DHT22;63002;48.134;-1.948;2024-01-27T20:23:24;18.70;54.90
74520;DHT22;63002;48.134;-1.948;2024-01-27T20:25:50;18.70;54.10
74520;DHT22;63002;48.134;-1.948;2024-01-27T20:28:17;18.80;54.20
74520;DHT22;63002;48.134;-1.948;2024-01-27T20:30:43;18.70;54.40
74520;DHT22;63002;48.134;-1.948;2024-01-27T20:33:09;18.70;54.60
74520;DHT22;63002;48.134;-1.948;2024-01-27T20:35:36;18.60;54.60
74520;DHT22;63002;48.134;-1.948;2024-01-27T20:38:02;18.60;54.70
74520;DHT22;63002;48.134;-1.948;2024-01-27T20:40:27;18.60;54.90
74520;DHT22;63002;48.134;-1.948;2024-01-27T20:42:53;18.60;54.90
74520;DHT22;63002;48.134;-1.948;2024-01-27T20:45:19;18.60;55.00
74520;DHT22;63002;48.134;-1.948;2024-01-27T20:47:47;18.60;55.00
74520;DHT22;63002;48.134;-1.948;2024-01-27T20:50:16;18.50;55.00
74520;DHT22;63002;48.134;-1.948;2024-01-27T20:52:42;18.50;55.10
74520;DHT22;63002;48.134;-1.948;2024-01-27T20:55:08;18.50;55.10
74520;DHT22;63002;48.134;-1.948;2024-01-27T20:57:34;18.50;55.20
74520;DHT22;63002;48.134;-1.948;2024-01-27T21:00:01;18.50;55.20
74520;DHT22;63002;48.134;-1.948;2024-01-27T21:02:27;18.50;55.20
74520;DHT22;63002;48.134;-1.948;2024-01-27T21:04:52;18.50;55.20
74520;DHT22;63002;48.134;-1.948;2024-01-27T21:07:18;18.40;54.10
74520;DHT22;63002;48.134;-1.948;2024-01-27T21:09:45;18.30;54.70